sensor_id;sensor_type;location;lat;lon;timestamp;P1;durP1;ratioP1;P2;durP2;ratioP2
54881;SDS011;40775;51.448;4.742;2022-12-31T00:00:20;1.52;;;0.98;;
54881;SDS011;40775;51.448;4.742;2022-12-31T00:02:47;1.48;;;0.68;;
54881;SDS011;40775;51.448;4.742;2022-12-31T00:05:14;1.90;;;0.90;;
54881;SDS011;40775;51.448;4.742;2022-12-31T00:07:41;1.00;;;0.52;;
54881;SDS011;40775;51.448;4.742;2022-12-31T00:10:07;1.63;;;0.80;;
54881;SDS011;40775;51.448;4.742;2022-12-31T00:12:34;2.37;;;0.57;;
54881;SDS011;40775;51.448;4.742;2022-12-31T00:15:01;1.45;;;0.80;;
54881;SDS011;40775;51.448;4.742;2022-12-31T00:17:29;1.55;;;0.60;;
54881;SDS011;40775;51.448;4.742;2022-12-31T00:19:56;2.05;;;0.80;;
54881;SDS011;40775;51.448;4.742;2022-12-31T00:22:23;1.08;;;0.60;;
54881;SDS011;40775;51.448;4.742;2022-12-31T00:24:50;1.13;;;0.60;;
54881;SDS011;40775;51.448;4.742;2022-12-31T00:27:17;1.30;;;0.80;;
54881;SDS011;40775;51.448;4.742;2022-12-31T00:29:44;1.00;;;0.52;;
54881;SDS011;40775;51.448;4.742;2022-12-31T00:32:11;0.82;;;0.60;;
54881;SDS011;40775;51.448;4.742;2022-12-31T00:34:38;0.80;;;0.50;;
54881;SDS011;40775;51.448;4.742;2022-12-31T00:37:05;1.17;;;0.60;;
54881;SDS011;40775;51.448;4.742;2022-12-31T00:39:32;1.65;;;0.77;;
54881;SDS011;40775;51.448;4.742;2022-12-31T00:41:59;1.10;;;0.70;;
54881;SDS011;40775;51.448;4.742;2022-12-31T00:44:26;1.15;;;0.50;;
54881;SDS011;40775;51.448;4.742;2022-12-31T00:46:53;0.77;;;0.50;;
54881;SDS011;40775;51.448;4.742;2022-12-31T00:49:20;1.80;;;0.50;;
54881;SDS011;40775;51.448;4.742;2022-12-31T00:51:47;2.00;;;0.52;;
54881;SDS011;40775;51.448;4.742;2022-12-31T00:54:14;0.95;;;0.43;;
54881;SDS011;40775;51.448;4.742;2022-12-31T00:56:41;0.80;;;0.40;;
54881;SDS011;40775;51.448;4.742;2022-12-31T00:59:08;0.98;;;0.50;;
54881;SDS011;40775;51.448;4.742;2022-12-31T01:01:37;1.25;;;0.50;;
54881;SDS011;40775;51.448;4.742;2022-12-31T01:04:13;1.23;;;0.57;;
54881;SDS011;40775;51.448;4.742;2022-12-31T01:06:43;0.98;;;0.40;;
54881;SDS011;40775;51.448;4.742;2022-12-31T01:09:12;0.88;;;0.40;;
54881;SDS011;40775;51.448;4.742;2022-12-31T01:11:41;1.10;;;0.52;;
54881;SDS011;40775;51.448;4.742;2022-12-31T01:14:10;0.82;;;0.30;;
54881;SDS011;40775;51.448;4.742;2022-12-31T01:16:49;1.05;;;0.40;;
54881;SDS011;40775;51.448;4.742;2022-12-31T01:19:22;0.43;;;0.30;;
54881;SDS011;40775;51.448;4.742;2022-12-31T01:21:52;1.02;;;0.50;;
54881;SDS011;40775;51.448;4.742;2022-12-31T01:24:21;0.68;;;0.40;;
54881;SDS011;40775;51.448;4.742;2022-12-31T01:26:48;1.00;;;0.40;;
54881;SDS011;40775;51.448;4.742;2022-12-31T01:29:16;1.13;;;0.40;;
54881;SDS011;40775;51.448;4.742;2022-12-31T01:31:43;0.57;;;0.38;;
54881;SDS011;40775;51.448;4.742;2022-12-31T01:34:10;0.80;;;0.30;;
54881;SDS011;40775;51.448;4.742;2022-12-31T01:36:38;1.35;;;0.50;;
54881;SDS011;40775;51.448;4.742;2022-12-31T01:39:06;0.63;;;0.40;;
54881;SDS011;40775;51.448;4.742;2022-12-31T01:41:36;0.77;;;0.40;;
54881;SDS011;40775;51.448;4.742;2022-12-31T01:49:22;0.73;;;0.40;;
54881;SDS011;40775;51.448;4.742;2022-12-31T01:52:06;0.75;;;0.38;;
54881;SDS011;40775;51.448;4.742;2022-12-31T01:54:40;0.43;;;0.30;;
54881;SDS011;40775;51.448;4.742;2022-12-31T01:57:13;1.23;;;0.40;;
54881;SDS011;40775;51.448;4.742;2022-12-31T01:59:42;0.45;;;0.30;;
54881;SDS011;40775;51.448;4.742;2022-12-31T02:02:10;0.85;;;0.45;;
54881;SDS011;40775;51.448;4.742;2022-12-31T02:04:40;1.23;;;0.40;;
54881;SDS011;40775;51.448;4.742;2022-12-31T02:07:08;0.50;;;0.30;;
54881;SDS011;40775;51.448;4.742;2022-12-31T02:09:37;0.77;;;0.30;;
54881;SDS011;40775;51.448;4.742;2022-12-31T02:12:07;0.80;;;0.30;;
54881;SDS011;40775;51.448;4.742;2022-12-31T02:14:36;0.80;;;0.30;;
54881;SDS011;40775;51.448;4.742;2022-12-31T02:17:33;0.53;;;0.30;;
54881;SDS011;40775;51.448;4.742;2022-12-31T02:38:16;1.45;;;0.65;;
54881;SDS011;40775;51.448;4.742;2022-12-31T02:40:51;1.70;;;0.90;;
54881;SDS011;40775;51.448;4.742;2022-12-31T02:43:22;1.40;;;0.80;;
54881;SDS011;40775;51.448;4.742;2022-12-31T02:49:09;1.63;;;0.77;;
54881;SDS011;40775;51.448;4.742;2022-12-31T02:54:57;1.60;;;0.63;;
54881;SDS011;40775;51.448;4.742;2022-12-31T03:00:25;3.42;;;0.70;;
54881;SDS011;40775;51.448;4.742;2022-12-31T03:03:14;1.45;;;0.60;;
54881;SDS011;40775;51.448;4.742;2022-12-31T03:05:42;2.55;;;0.70;;
54881;SDS011;40775;51.448;4.742;2022-12-31T03:08:18;1.48;;;0.77;;
54881;SDS011;40775;51.448;4.742;2022-12-31T03:10:51;2.50;;;0.82;;
54881;SDS011;40775;51.448;4.742;2022-12-31T03:13:18;1.45;;;0.85;;
54881;SDS011;40775;51.448;4.742;2022-12-31T03:15:45;1.60;;;0.82;;
54881;SDS011;40775;51.448;4.742;2022-12-31T03:18:13;1.88;;;0.80;;
54881;SDS011;40775;51.448;4.742;2022-12-31T03:21:10;1.63;;;1.00;;
54881;SDS011;40775;51.448;4.742;2022-12-31T03:23:57;2.08;;;1.10;;
54881;SDS011;40775;51.448;4.742;2022-12-31T03:26:43;2.60;;;1.20;;
54881;SDS011;40775;51.448;4.742;2022-12-31T03:29:10;2.35;;;1.10;;
54881;SDS011;40775;51.448;4.742;2022-12-31T03:31:37;2.30;;;1.17;;
54881;SDS011;40775;51.448;4.742;2022-12-31T03:34:04;2.38;;;1.23;;
54881;SDS011;40775;51.448;4.742;2022-12-31T03:36:31;2.40;;;1.30;;
54881;SDS011;40775;51.448;4.742;2022-12-31T03:38:58;3.78;;;1.33;;
54881;SDS011;40775;51.448;4.742;2022-12-31T03:41:25;2.10;;;1.10;;
54881;SDS011;40775;51.448;4.742;2022-12-31T03:43:52;3.95;;;1.60;;
54881;SDS011;40775;51.448;4.742;2022-12-31T03:46:19;1.92;;;1.20;;
54881;SDS011;40775;51.448;4.742;2022-12-31T03:48:46;3.53;;;1.45;;
54881;SDS011;40775;51.448;4.742;2022-12-31T03:51:13;3.10;;;1.58;;
54881;SDS011;40775;51.448;4.742;2022-12-31T03:53:40;2.85;;;1.55;;
54881;SDS011;40775;51.448;4.742;2022-12-31T03:56:07;2.90;;;1.60;;
54881;SDS011;40775;51.448;4.742;2022-12-31T03:58:34;2.97;;;1.58;;
54881;SDS011;40775;51.448;4.742;2022-12-31T04:01:01;2.67;;;1.55;;
54881;SDS011;40775;51.448;4.742;2022-12-31T04:03:28;3.53;;;1.40;;
54881;SDS011;40775;51.448;4.742;2022-12-31T04:05:55;3.42;;;1.85;;
54881;SDS011;40775;51.448;4.742;2022-12-31T04:08:23;3.97;;;1.90;;
54881;SDS011;40775;51.448;4.742;2022-12-31T04:10:50;2.88;;;1.80;;
54881;SDS011;40775;51.448;4.742;2022-12-31T04:13:17;3.20;;;1.60;;
54881;SDS011;40775;51.448;4.742;2022-12-31T04:15:44;3.93;;;2.03;;
54881;SDS011;40775;51.448;4.742;2022-12-31T04:18:14;3.95;;;1.95;;
54881;SDS011;40775;51.448;4.742;2022-12-31T04:20:41;4.23;;;2.00;;
54881;SDS011;40775;51.448;4.742;2022-12-31T04:23:08;3.13;;;2.00;;
54881;SDS011;40775;51.448;4.742;2022-12-31T04:25:35;5.00;;;1.92;;
54881;SDS011;40775;51.448;4.742;2022-12-31T04:28:02;3.67;;;1.70;;
54881;SDS011;40775;51.448;4.742;2022-12-31T04:30:29;3.30;;;1.63;;
54881;SDS011;40775;51.448;4.742;2022-12-31T04:32:56;3.20;;;1.80;;
54881;SDS011;40775;51.448;4.742;2022-12-31T04:35:23;2.92;;;1.50;;
54881;SDS011;40775;51.448;4.742;2022-12-31T04:37:50;3.80;;;1.60;;
54881;SDS011;40775;51.448;4.742;2022-12-31T04:40:17;3.90;;;1.65;;
54881;SDS011;40775;51.448;4.742;2022-12-31T04:42:44;3.25;;;1.35;;
54881;SDS011;40775;51.448;4.742;2022-12-31T04:45:12;2.40;;;1.27;;
54881;SDS011;40775;51.448;4.742;2022-12-31T04:47:39;2.63;;;1.50;;
54881;SDS011;40775;51.448;4.742;2022-12-31T04:50:06;2.63;;;1.30;;
54881;SDS011;40775;51.448;4.742;2022-12-31T04:52:33;2.07;;;1.10;;
54881;SDS011;40775;51.448;4.742;2022-12-31T04:58:06;2.53;;;1.27;;
54881;SDS011;40775;51.448;4.742;2022-12-31T05:00:33;1.92;;;0.98;;
54881;SDS011;40775;51.448;4.742;2022-12-31T05:03:00;2.67;;;1.02;;
54881;SDS011;40775;51.448;4.742;2022-12-31T05:05:27;2.63;;;1.10;;
54881;SDS011;40775;51.448;4.742;2022-12-31T05:07:55;2.60;;;1.20;;
54881;SDS011;40775;51.448;4.742;2022-12-31T05:10:22;3.20;;;1.13;;
54881;SDS011;40775;51.448;4.742;2022-12-31T05:12:49;1.50;;;0.60;;
54881;SDS011;40775;51.448;4.742;2022-12-31T05:15:16;1.92;;;0.65;;
54881;SDS011;40775;51.448;4.742;2022-12-31T05:17:43;1.40;;;0.50;;
54881;SDS011;40775;51.448;4.742;2022-12-31T05:20:10;1.35;;;0.52;;
54881;SDS011;40775;51.448;4.742;2022-12-31T05:22:37;1.88;;;0.60;;
54881;SDS011;40775;51.448;4.742;2022-12-31T05:25:04;0.90;;;0.47;;
54881;SDS011;40775;51.448;4.742;2022-12-31T05:27:32;0.88;;;0.30;;
54881;SDS011;40775;51.448;4.742;2022-12-31T05:29:59;0.43;;;0.20;;
54881;SDS011;40775;51.448;4.742;2022-12-31T05:32:26;0.98;;;0.40;;
54881;SDS011;40775;51.448;4.742;2022-12-31T05:34:53;1.73;;;0.35;;
54881;SDS011;40775;51.448;4.742;2022-12-31T05:37:20;1.30;;;0.40;;
54881;SDS011;40775;51.448;4.742;2022-12-31T05:39:47;0.82;;;0.30;;
54881;SDS011;40775;51.448;4.742;2022-12-31T05:42:14;1.67;;;0.30;;
54881;SDS011;40775;51.448;4.742;2022-12-31T05:44:41;0.32;;;0.30;;
54881;SDS011;40775;51.448;4.742;2022-12-31T05:47:09;0.80;;;0.40;;
54881;SDS011;40775;51.448;4.742;2022-12-31T05:49:36;1.35;;;0.40;;
54881;SDS011;40775;51.448;4.742;2022-12-31T05:52:03;0.60;;;0.40;;
54881;SDS011;40775;51.448;4.742;2022-12-31T05:54:30;0.85;;;0.20;;
54881;SDS011;40775;51.448;4.742;2022-12-31T05:56:57;0.50;;;0.20;;
54881;SDS011;40775;51.448;4.742;2022-12-31T05:59:25;2.97;;;0.30;;
54881;SDS011;40775;51.448;4.742;2022-12-31T06:01:52;0.80;;;0.30;;
54881;SDS011;40775;51.448;4.742;2022-12-31T06:04:19;0.25;;;0.20;;
54881;SDS011;40775;51.448;4.742;2022-12-31T06:06:46;0.53;;;0.30;;
54881;SDS011;40775;51.448;4.742;2022-12-31T06:09:13;1.10;;;0.30;;
54881;SDS011;40775;51.448;4.742;2022-12-31T06:11:42;2.35;;;0.50;;
54881;SDS011;40775;51.448;4.742;2022-12-31T06:14:10;1.25;;;0.52;;
54881;SDS011;40775;51.448;4.742;2022-12-31T06:16:38;1.17;;;0.47;;
54881;SDS011;40775;51.448;4.742;2022-12-31T06:19:05;1.20;;;0.30;;
54881;SDS011;40775;51.448;4.742;2022-12-31T06:21:32;1.00;;;0.43;;
54881;SDS011;40775;51.448;4.742;2022-12-31T06:24:00;2.72;;;0.65;;
54881;SDS011;40775;51.448;4.742;2022-12-31T06:26:27;1.00;;;0.57;;
54881;SDS011;40775;51.448;4.742;2022-12-31T06:28:54;1.65;;;0.40;;
54881;SDS011;40775;51.448;4.742;2022-12-31T06:31:21;0.60;;;0.30;;
54881;SDS011;40775;51.448;4.742;2022-12-31T06:33:48;2.05;;;0.20;;
54881;SDS011;40775;51.448;4.742;2022-12-31T06:36:15;1.08;;;0.40;;
54881;SDS011;40775;51.448;4.742;2022-12-31T06:38:42;1.90;;;0.20;;
54881;SDS011;40775;51.448;4.742;2022-12-31T06:41:11;1.97;;;0.33;;
54881;SDS011;40775;51.448;4.742;2022-12-31T06:43:40;1.50;;;0.20;;
54881;SDS011;40775;51.448;4.742;2022-12-31T06:46:09;0.70;;;0.25;;
54881;SDS011;40775;51.448;4.742;2022-12-31T06:48:38;0.43;;;0.13;;
54881;SDS011;40775;51.448;4.742;2022-12-31T06:51:09;1.40;;;0.30;;
54881;SDS011;40775;51.448;4.742;2022-12-31T06:53:46;2.20;;;0.40;;
54881;SDS011;40775;51.448;4.742;2022-12-31T06:56:19;1.30;;;0.22;;
54881;SDS011;40775;51.448;4.742;2022-12-31T06:58:58;0.98;;;0.32;;
54881;SDS011;40775;51.448;4.742;2022-12-31T07:07:09;0.55;;;0.10;;
54881;SDS011;40775;51.448;4.742;2022-12-31T07:15:56;0.43;;;0.10;;
54881;SDS011;40775;51.448;4.742;2022-12-31T07:21:36;2.22;;;0.60;;
54881;SDS011;40775;51.448;4.742;2022-12-31T07:24:07;2.10;;;0.43;;
54881;SDS011;40775;51.448;4.742;2022-12-31T07:40:50;0.75;;;0.40;;
54881;SDS011;40775;51.448;4.742;2022-12-31T07:43:55;4.93;;;0.55;;
54881;SDS011;40775;51.448;4.742;2022-12-31T07:49:21;3.80;;;0.60;;
54881;SDS011;40775;51.448;4.742;2022-12-31T07:51:50;1.00;;;0.50;;
54881;SDS011;40775;51.448;4.742;2022-12-31T07:54:18;0.95;;;0.38;;
54881;SDS011;40775;51.448;4.742;2022-12-31T07:56:47;2.60;;;0.50;;
54881;SDS011;40775;51.448;4.742;2022-12-31T07:59:18;1.25;;;0.52;;
54881;SDS011;40775;51.448;4.742;2022-12-31T08:07:54;0.80;;;0.30;;
54881;SDS011;40775;51.448;4.742;2022-12-31T08:13:35;2.00;;;0.40;;
54881;SDS011;40775;51.448;4.742;2022-12-31T08:16:04;1.35;;;0.47;;
54881;SDS011;40775;51.448;4.742;2022-12-31T08:18:37;2.30;;;0.50;;
54881;SDS011;40775;51.448;4.742;2022-12-31T08:21:18;1.87;;;0.60;;
54881;SDS011;40775;51.448;4.742;2022-12-31T08:30:38;1.00;;;0.40;;
54881;SDS011;40775;51.448;4.742;2022-12-31T08:41:57;1.13;;;0.50;;
54881;SDS011;40775;51.448;4.742;2022-12-31T08:44:35;1.02;;;0.55;;
54881;SDS011;40775;51.448;4.742;2022-12-31T08:50:11;2.88;;;0.68;;
54881;SDS011;40775;51.448;4.742;2022-12-31T08:52:41;3.07;;;0.67;;
54881;SDS011;40775;51.448;4.742;2022-12-31T08:55:13;2.40;;;0.85;;
54881;SDS011;40775;51.448;4.742;2022-12-31T08:58:06;1.20;;;0.50;;
54881;SDS011;40775;51.448;4.742;2022-12-31T09:00:44;2.00;;;0.50;;
54881;SDS011;40775;51.448;4.742;2022-12-31T09:05:54;1.38;;;0.68;;
54881;SDS011;40775;51.448;4.742;2022-12-31T09:12:21;2.03;;;0.57;;
54881;SDS011;40775;51.448;4.742;2022-12-31T09:15:14;1.20;;;0.40;;
54881;SDS011;40775;51.448;4.742;2022-12-31T09:17:50;1.90;;;0.68;;
54881;SDS011;40775;51.448;4.742;2022-12-31T09:20:31;1.30;;;0.45;;
54881;SDS011;40775;51.448;4.742;2022-12-31T09:23:10;2.47;;;0.57;;
54881;SDS011;40775;51.448;4.742;2022-12-31T09:25:48;1.58;;;0.60;;
54881;SDS011;40775;51.448;4.742;2022-12-31T09:28:35;2.70;;;0.88;;
54881;SDS011;40775;51.448;4.742;2022-12-31T09:31:39;1.35;;;0.68;;
54881;SDS011;40775;51.448;4.742;2022-12-31T09:34:22;2.97;;;0.70;;
54881;SDS011;40775;51.448;4.742;2022-12-31T09:37:14;1.90;;;0.50;;
54881;SDS011;40775;51.448;4.742;2022-12-31T09:39:50;5.60;;;2.10;;
54881;SDS011;40775;51.448;4.742;2022-12-31T09:54:44;2.67;;;0.90;;
54881;SDS011;40775;51.448;4.742;2022-12-31T10:00:47;1.88;;;0.90;;
54881;SDS011;40775;51.448;4.742;2022-12-31T10:06:26;5.10;;;1.38;;
54881;SDS011;40775;51.448;4.742;2022-12-31T10:09:21;3.53;;;1.00;;
54881;SDS011;40775;51.448;4.742;2022-12-31T10:15:17;3.42;;;1.10;;
54881;SDS011;40775;51.448;4.742;2022-12-31T10:18:12;1.67;;;0.70;;
54881;SDS011;40775;51.448;4.742;2022-12-31T10:44:29;2.15;;;0.65;;
54881;SDS011;40775;51.448;4.742;2022-12-31T10:53:45;0.70;;;0.38;;
54881;SDS011;40775;51.448;4.742;2022-12-31T10:57:05;1.70;;;0.73;;
54881;SDS011;40775;51.448;4.742;2022-12-31T11:00:29;2.53;;;0.98;;
54881;SDS011;40775;51.448;4.742;2022-12-31T11:21:44;1.55;;;0.70;;
54881;SDS011;40775;51.448;4.742;2022-12-31T11:24:32;1.77;;;0.65;;
54881;SDS011;40775;51.448;4.742;2022-12-31T11:33:32;4.15;;;1.67;;
54881;SDS011;40775;51.448;4.742;2022-12-31T11:42:17;2.50;;;1.00;;
54881;SDS011;40775;51.448;4.742;2022-12-31T11:45:13;3.08;;;1.10;;
54881;SDS011;40775;51.448;4.742;2022-12-31T11:54:14;4.10;;;1.92;;
54881;SDS011;40775;51.448;4.742;2022-12-31T11:57:24;3.13;;;1.38;;
54881;SDS011;40775;51.448;4.742;2022-12-31T12:02:46;3.38;;;1.30;;
54881;SDS011;40775;51.448;4.742;2022-12-31T12:05:16;2.58;;;0.82;;
54881;SDS011;40775;51.448;4.742;2022-12-31T12:07:47;2.72;;;0.88;;
54881;SDS011;40775;51.448;4.742;2022-12-31T12:10:24;4.28;;;1.30;;
54881;SDS011;40775;51.448;4.742;2022-12-31T12:13:09;4.15;;;1.05;;
54881;SDS011;40775;51.448;4.742;2022-12-31T12:15:51;4.00;;;1.42;;
54881;SDS011;40775;51.448;4.742;2022-12-31T12:21:29;3.55;;;1.23;;
54881;SDS011;40775;51.448;4.742;2022-12-31T12:26:43;4.68;;;1.13;;
54881;SDS011;40775;51.448;4.742;2022-12-31T12:29:11;2.80;;;1.02;;
54881;SDS011;40775;51.448;4.742;2022-12-31T12:31:54;2.22;;;1.08;;
54881;SDS011;40775;51.448;4.742;2022-12-31T12:34:23;4.78;;;1.50;;
54881;SDS011;40775;51.448;4.742;2022-12-31T12:36:54;1.90;;;0.63;;
54881;SDS011;40775;51.448;4.742;2022-12-31T12:39:24;3.88;;;0.90;;
54881;SDS011;40775;51.448;4.742;2022-12-31T12:42:04;2.75;;;0.68;;
54881;SDS011;40775;51.448;4.742;2022-12-31T12:44:40;3.03;;;1.00;;
54881;SDS011;40775;51.448;4.742;2022-12-31T12:47:10;5.00;;;1.20;;
54881;SDS011;40775;51.448;4.742;2022-12-31T12:49:46;6.05;;;1.23;;
54881;SDS011;40775;51.448;4.742;2022-12-31T12:58:04;3.45;;;1.20;;
54881;SDS011;40775;51.448;4.742;2022-12-31T13:00:47;3.63;;;1.10;;
54881;SDS011;40775;51.448;4.742;2022-12-31T13:06:57;3.38;;;0.90;;
54881;SDS011;40775;51.448;4.742;2022-12-31T14:07:12;4.93;;;1.57;;
54881;SDS011;40775;51.448;4.742;2022-12-31T14:10:08;3.63;;;1.35;;
54881;SDS011;40775;51.448;4.742;2022-12-31T14:24:47;4.32;;;1.60;;
54881;SDS011;40775;51.448;4.742;2022-12-31T14:27:25;6.55;;;1.92;;
54881;SDS011;40775;51.448;4.742;2022-12-31T14:30:04;1.95;;;0.90;;
54881;SDS011;40775;51.448;4.742;2022-12-31T14:35:54;4.15;;;1.60;;
54881;SDS011;40775;51.448;4.742;2022-12-31T14:47:23;6.60;;;2.08;;
54881;SDS011;40775;51.448;4.742;2022-12-31T14:50:13;11.70;;;5.72;;
54881;SDS011;40775;51.448;4.742;2022-12-31T14:53:05;8.32;;;3.67;;
54881;SDS011;40775;51.448;4.742;2022-12-31T14:55:42;7.82;;;3.10;;
54881;SDS011;40775;51.448;4.742;2022-12-31T14:58:20;9.10;;;4.60;;
54881;SDS011;40775;51.448;4.742;2022-12-31T15:00:55;5.25;;;2.15;;
54881;SDS011;40775;51.448;4.742;2022-12-31T15:03:36;5.32;;;2.40;;
54881;SDS011;40775;51.448;4.742;2022-12-31T15:09:18;6.95;;;2.60;;
54881;SDS011;40775;51.448;4.742;2022-12-31T15:15:13;6.45;;;2.13;;
54881;SDS011;40775;51.448;4.742;2022-12-31T15:23:24;6.93;;;2.25;;
54881;SDS011;40775;51.448;4.742;2022-12-31T15:26:05;6.03;;;2.00;;
54881;SDS011;40775;51.448;4.742;2022-12-31T15:28:34;5.47;;;1.90;;
54881;SDS011;40775;51.448;4.742;2022-12-31T15:31:17;4.72;;;1.30;;
54881;SDS011;40775;51.448;4.742;2022-12-31T15:34:05;6.03;;;2.00;;
54881;SDS011;40775;51.448;4.742;2022-12-31T15:36:56;6.77;;;1.80;;
54881;SDS011;40775;51.448;4.742;2022-12-31T15:41:56;4.85;;;1.52;;
54881;SDS011;40775;51.448;4.742;2022-12-31T15:44:47;4.10;;;1.30;;
54881;SDS011;40775;51.448;4.742;2022-12-31T15:47:31;5.70;;;1.73;;
54881;SDS011;40775;51.448;4.742;2022-12-31T15:50:05;4.53;;;1.50;;
54881;SDS011;40775;51.448;4.742;2022-12-31T15:52:55;4.45;;;1.38;;
54881;SDS011;40775;51.448;4.742;2022-12-31T15:55:29;4.53;;;1.77;;
54881;SDS011;40775;51.448;4.742;2022-12-31T15:58:11;8.90;;;2.17;;
54881;SDS011;40775;51.448;4.742;2022-12-31T16:03:35;5.60;;;1.50;;
54881;SDS011;40775;51.448;4.742;2022-12-31T16:06:09;3.80;;;1.65;;
54881;SDS011;40775;51.448;4.742;2022-12-31T16:08:39;5.50;;;1.48;;
54881;SDS011;40775;51.448;4.742;2022-12-31T16:11:11;5.82;;;1.60;;
54881;SDS011;40775;51.448;4.742;2022-12-31T16:13:39;4.95;;;1.95;;
54881;SDS011;40775;51.448;4.742;2022-12-31T16:16:21;6.17;;;2.17;;
54881;SDS011;40775;51.448;4.742;2022-12-31T16:18:57;5.93;;;1.92;;
54881;SDS011;40775;51.448;4.742;2022-12-31T16:24:05;7.75;;;1.90;;
54881;SDS011;40775;51.448;4.742;2022-12-31T16:26:59;4.72;;;1.83;;
54881;SDS011;40775;51.448;4.742;2022-12-31T16:29:43;6.45;;;1.90;;
54881;SDS011;40775;51.448;4.742;2022-12-31T16:32:21;3.60;;;1.70;;
54881;SDS011;40775;51.448;4.742;2022-12-31T16:34:48;4.45;;;1.70;;
54881;SDS011;40775;51.448;4.742;2022-12-31T16:37:16;3.55;;;1.40;;
54881;SDS011;40775;51.448;4.742;2022-12-31T16:42:34;4.70;;;1.77;;
54881;SDS011;40775;51.448;4.742;2022-12-31T16:45:55;3.20;;;1.73;;
54881;SDS011;40775;51.448;4.742;2022-12-31T16:48:06;7.82;;;2.40;;
54881;SDS011;40775;51.448;4.742;2022-12-31T16:50:49;5.47;;;1.97;;
54881;SDS011;40775;51.448;4.742;2022-12-31T16:53:22;4.22;;;1.63;;
54881;SDS011;40775;51.448;4.742;2022-12-31T16:56:00;4.68;;;1.88;;
54881;SDS011;40775;51.448;4.742;2022-12-31T16:58:32;4.03;;;1.50;;
54881;SDS011;40775;51.448;4.742;2022-12-31T17:01:12;4.07;;;1.30;;
54881;SDS011;40775;51.448;4.742;2022-12-31T17:03:47;2.70;;;1.10;;
54881;SDS011;40775;51.448;4.742;2022-12-31T17:06:21;6.07;;;1.93;;
54881;SDS011;40775;51.448;4.742;2022-12-31T17:16:32;3.63;;;1.30;;
54881;SDS011;40775;51.448;4.742;2022-12-31T17:22:24;4.75;;;1.73;;
54881;SDS011;40775;51.448;4.742;2022-12-31T17:25:24;3.80;;;1.70;;
54881;SDS011;40775;51.448;4.742;2022-12-31T17:27:59;5.50;;;1.87;;
54881;SDS011;40775;51.448;4.742;2022-12-31T17:33:02;4.40;;;1.42;;
54881;SDS011;40775;51.448;4.742;2022-12-31T17:35:34;4.07;;;1.60;;
54881;SDS011;40775;51.448;4.742;2022-12-31T17:40:47;5.50;;;1.90;;
54881;SDS011;40775;51.448;4.742;2022-12-31T17:43:21;4.55;;;1.77;;
54881;SDS011;40775;51.448;4.742;2022-12-31T17:45:51;5.35;;;1.90;;
54881;SDS011;40775;51.448;4.742;2022-12-31T17:48:21;4.97;;;1.80;;
54881;SDS011;40775;51.448;4.742;2022-12-31T17:50:53;4.53;;;1.80;;
54881;SDS011;40775;51.448;4.742;2022-12-31T17:53:23;6.25;;;1.75;;
54881;SDS011;40775;51.448;4.742;2022-12-31T17:55:51;4.82;;;1.75;;
54881;SDS011;40775;51.448;4.742;2022-12-31T17:58:35;4.60;;;1.75;;
54881;SDS011;40775;51.448;4.742;2022-12-31T18:01:17;6.35;;;1.65;;
54881;SDS011;40775;51.448;4.742;2022-12-31T18:03:47;4.57;;;1.52;;
54881;SDS011;40775;51.448;4.742;2022-12-31T18:06:15;5.38;;;1.98;;
54881;SDS011;40775;51.448;4.742;2022-12-31T18:08:45;5.30;;;1.55;;
54881;SDS011;40775;51.448;4.742;2022-12-31T18:11:22;4.03;;;1.63;;
54881;SDS011;40775;51.448;4.742;2022-12-31T18:13:49;5.60;;;2.03;;
54881;SDS011;40775;51.448;4.742;2022-12-31T18:16:18;4.78;;;1.80;;
54881;SDS011;40775;51.448;4.742;2022-12-31T18:18:45;5.28;;;2.05;;
54881;SDS011;40775;51.448;4.742;2022-12-31T18:21:13;5.05;;;1.80;;
54881;SDS011;40775;51.448;4.742;2022-12-31T18:24:02;4.88;;;1.60;;
54881;SDS011;40775;51.448;4.742;2022-12-31T18:26:29;4.82;;;1.90;;
54881;SDS011;40775;51.448;4.742;2022-12-31T18:28:58;2.70;;;1.15;;
54881;SDS011;40775;51.448;4.742;2022-12-31T18:31:35;4.53;;;1.65;;
54881;SDS011;40775;51.448;4.742;2022-12-31T18:34:03;6.43;;;1.90;;
54881;SDS011;40775;51.448;4.742;2022-12-31T18:36:30;9.10;;;2.08;;
54881;SDS011;40775;51.448;4.742;2022-12-31T18:38:57;6.60;;;2.13;;
54881;SDS011;40775;51.448;4.742;2022-12-31T18:41:25;5.63;;;1.67;;
54881;SDS011;40775;51.448;4.742;2022-12-31T18:43:59;4.88;;;1.98;;
54881;SDS011;40775;51.448;4.742;2022-12-31T18:46:26;7.82;;;2.22;;
54881;SDS011;40775;51.448;4.742;2022-12-31T18:48:54;4.85;;;1.65;;
54881;SDS011;40775;51.448;4.742;2022-12-31T18:51:22;6.68;;;1.83;;
54881;SDS011;40775;51.448;4.742;2022-12-31T18:53:57;5.13;;;1.60;;
54881;SDS011;40775;51.448;4.742;2022-12-31T18:56:25;5.78;;;2.00;;
54881;SDS011;40775;51.448;4.742;2022-12-31T18:58:53;6.30;;;1.90;;
54881;SDS011;40775;51.448;4.742;2022-12-31T19:01:23;5.40;;;1.60;;
54881;SDS011;40775;51.448;4.742;2022-12-31T19:06:46;4.10;;;1.63;;
54881;SDS011;40775;51.448;4.742;2022-12-31T19:09:14;6.50;;;2.30;;
54881;SDS011;40775;51.448;4.742;2022-12-31T19:12:02;7.95;;;2.78;;
54881;SDS011;40775;51.448;4.742;2022-12-31T19:14:30;6.43;;;2.53;;
54881;SDS011;40775;51.448;4.742;2022-12-31T19:16:57;2.63;;;1.00;;
54881;SDS011;40775;51.448;4.742;2022-12-31T19:19:23;9.23;;;2.17;;
54881;SDS011;40775;51.448;4.742;2022-12-31T19:21:51;6.47;;;2.05;;
54881;SDS011;40775;51.448;4.742;2022-12-31T19:24:19;6.63;;;2.40;;
54881;SDS011;40775;51.448;4.742;2022-12-31T19:26:49;7.50;;;2.28;;
54881;SDS011;40775;51.448;4.742;2022-12-31T19:29:20;6.82;;;2.08;;
54881;SDS011;40775;51.448;4.742;2022-12-31T19:31:52;5.28;;;1.75;;
54881;SDS011;40775;51.448;4.742;2022-12-31T19:34:20;5.20;;;1.85;;
54881;SDS011;40775;51.448;4.742;2022-12-31T19:36:47;3.72;;;1.75;;
54881;SDS011;40775;51.448;4.742;2022-12-31T19:39:16;5.72;;;1.98;;
54881;SDS011;40775;51.448;4.742;2022-12-31T19:41:46;4.87;;;1.73;;
54881;SDS011;40775;51.448;4.742;2022-12-31T19:44:23;5.82;;;1.98;;
54881;SDS011;40775;51.448;4.742;2022-12-31T19:46:50;8.38;;;2.05;;
54881;SDS011;40775;51.448;4.742;2022-12-31T19:49:17;5.90;;;1.70;;
54881;SDS011;40775;51.448;4.742;2022-12-31T19:51:44;4.20;;;1.48;;
54881;SDS011;40775;51.448;4.742;2022-12-31T19:54:11;5.70;;;1.65;;
54881;SDS011;40775;51.448;4.742;2022-12-31T19:56:39;4.80;;;1.48;;
54881;SDS011;40775;51.448;4.742;2022-12-31T19:59:07;5.45;;;1.92;;
54881;SDS011;40775;51.448;4.742;2022-12-31T20:01:36;6.90;;;2.60;;
54881;SDS011;40775;51.448;4.742;2022-12-31T20:04:04;4.05;;;1.70;;
54881;SDS011;40775;51.448;4.742;2022-12-31T20:06:31;6.78;;;1.92;;
54881;SDS011;40775;51.448;4.742;2022-12-31T20:08:58;6.03;;;2.15;;
54881;SDS011;40775;51.448;4.742;2022-12-31T20:11:25;4.82;;;1.95;;
54881;SDS011;40775;51.448;4.742;2022-12-31T20:13:52;5.43;;;2.03;;
54881;SDS011;40775;51.448;4.742;2022-12-31T20:16:20;5.78;;;1.48;;
54881;SDS011;40775;51.448;4.742;2022-12-31T20:18:52;6.57;;;2.20;;
54881;SDS011;40775;51.448;4.742;2022-12-31T20:21:23;4.35;;;1.83;;
54881;SDS011;40775;51.448;4.742;2022-12-31T20:23:53;5.32;;;2.00;;
54881;SDS011;40775;51.448;4.742;2022-12-31T20:26:21;6.60;;;2.25;;
54881;SDS011;40775;51.448;4.742;2022-12-31T20:28:49;4.70;;;1.85;;
54881;SDS011;40775;51.448;4.742;2022-12-31T20:31:19;8.17;;;2.33;;
54881;SDS011;40775;51.448;4.742;2022-12-31T20:33:50;4.80;;;1.50;;
54881;SDS011;40775;51.448;4.742;2022-12-31T20:36:19;5.43;;;2.22;;
54881;SDS011;40775;51.448;4.742;2022-12-31T20:38:47;4.07;;;1.55;;
54881;SDS011;40775;51.448;4.742;2022-12-31T20:41:16;4.43;;;1.70;;
54881;SDS011;40775;51.448;4.742;2022-12-31T20:43:46;5.43;;;2.00;;
54881;SDS011;40775;51.448;4.742;2022-12-31T20:46:15;4.45;;;1.50;;
54881;SDS011;40775;51.448;4.742;2022-12-31T20:48:46;5.85;;;1.80;;
54881;SDS011;40775;51.448;4.742;2022-12-31T20:51:15;7.50;;;2.10;;
54881;SDS011;40775;51.448;4.742;2022-12-31T20:53:47;7.28;;;2.50;;